Terminal Aerodrome Forecast
Issued by NWS Springfield, MO

Home | Current Version | Previous Version | Text Only | Print | Product List | Glossary On
Versions: 1 2 3 4 5 6 7 8 9 10 11 12 13 14 15 16 17 18 19 20
000
FTUS43 KSGF 171120
TAFSGF
TAF
KSGF 171120Z 1712/1812 15012KT 6SM -RA SCT015 OVC050
      TEMPO 1713/1716 3SM RA BR BKN007 OVC015
     FM171600 22013KT P6SM SCT008 BKN025
     FM171900 27014G21KT P6SM SCT250
     FM180000 VRB04KT P6SM SKC=

USA.gov is the U.S. government's official web portal to all federal, state and local government web resources and services.